マイアミ の空港の天気 - METARとTAF

マイアミ国際空港 ( KMIA / MIA ) - アメリカ フロリダ州マイアミ
飛行場実況気象(Metar)
観測時間11/20 03:53 EST (11/20 08:53 UTC)
風向・風速不定 2m/s
視程10km以上
天気現象
少しの雲 雲底高度 300m
少しの雲 雲底高度 610m
気温21.7℃
湿度90%
気圧1015.5hPa
METARKMIA 200853Z VRB04KT 10SM FEW010 FEW020 22/20 A2999 RMK AO2 SLP155 T02170200 53002
過去の天気等 Google飛行場航空写真 Wunderground天気予報

過去48時間のMETAR

飛行場予報(TAF)
発表時間: 11/20 04:04 EST (11/20 09:04 UTC)
予報対象時間: 20日4時 EST ~ 21日7時 EST
風向・風速北西 2m/s
視程10km以上
少しの雲 雲底高度 300m
全天の4割程度の雲 雲底高度 1,220m
20日7時 EST から
風向・風速北 5m/s
視程10km以上
全天の8割程度の雲 雲底高度 1,220m
20日9時 EST から
風向・風速東北東 7m/s 瞬間風速 12m/s
視程10km以上
天気現象周辺でしゅう雨
全天の8割程度の雲 雲底高度 1,070m
全天の8割程度の雲 雲底高度 1,520m
全天の8割程度の雲 雲底高度 2,740m
20日18時 EST から
風向・風速東北東 4m/s
視程10km以上
天気現象周辺でしゅう雨
全天の8割程度の雲 雲底高度 1,070m
全天を覆う雲 雲底高度 1,520m
KMIA 200904Z 2009/2112 32003KT P6SM FEW010 SCT040
FM201200 01009KT P6SM BKN040
FM201400 07014G23KT P6SM VCSH BKN035 BKN050 BKN090
FM202300 07008KT P6SM VCSH BKN035 OVC050